Time;durP1;ratioP1;P1;durP2;ratioP2;P2;SDS_P1;SDS_P2;PMS_P1;PMS_P2;Temp;Humidity;BMP_temperature;BMP_pressure;BME280_temperature;BME280_humidity;BME280_pressure;Samples;Min_cycle;Max_cycle;Signal;HPM_P1;HPM_P2
2023/02/11 00:00:34;;;;;;;27.37;19.17;;;-0.80;99.90;;;;;;6202567;28;20050;-79
2023/02/11 00:03:37;;;;;;;32.70;20.07;;;-0.90;99.90;;;;;;6201440;28;20053;-78
2023/02/11 00:06:39;;;;;;;23.23;17.37;;;-0.90;99.90;;;;;;6201332;28;20046;-78
2023/02/11 00:09:42;;;;;;;27.83;16.57;;;-0.90;99.90;;;;;;6200723;28;20047;-78
2023/02/11 00:12:44;;;;;;;26.53;19.07;;;-0.90;99.90;;;;;;6206077;28;20042;-78
2023/02/11 00:15:46;;;;;;;35.93;22.27;;;-1.00;99.90;;;;;;6208885;28;20420;-78
2023/02/11 00:18:51;;;;;;;33.13;20.53;;;-1.00;99.90;;;;;;6207830;28;20042;-79
2023/02/11 00:21:53;;;;;;;34.47;21.07;;;-1.00;99.90;;;;;;6208152;28;20070;-77
2023/02/11 00:24:58;;;;;;;24.80;18.37;;;-1.10;99.90;;;;;;6203121;28;20058;-79
2023/02/11 00:28:00;;;;;;;31.73;20.17;;;-1.10;99.90;;;;;;6212226;28;20100;-79
2023/02/11 00:31:02;;;;;;;31.37;17.03;;;-1.10;99.90;;;;;;6213498;28;20046;-79
2023/02/11 00:34:04;;;;;;;28.30;18.03;;;-1.10;99.90;;;;;;6216262;28;20625;-79
2023/02/11 00:37:06;;;;;;;33.00;19.23;;;-1.00;99.90;;;;;;6216624;28;20057;-79
2023/02/11 00:40:11;;;;;;;32.83;18.63;;;-0.80;99.90;;;;;;6212456;28;20094;-77
2023/02/11 00:43:13;;;;;;;40.37;22.87;;;-0.70;99.90;;;;;;6206476;28;20050;-77
2023/02/11 00:46:16;;;;;;;38.50;22.00;;;-0.70;99.90;;;;;;6190429;28;20050;-77
2023/02/11 00:49:18;;;;;;;33.23;21.27;;;-0.60;99.90;;;;;;6175815;28;20130;-77
2023/02/11 00:52:20;;;;;;;30.90;20.33;;;-0.50;99.90;;;;;;6176650;28;20051;-77
2023/02/11 00:55:26;;;;;;;32.27;19.67;;;-0.50;99.90;;;;;;6176902;28;20059;-77
2023/02/11 00:58:28;;;;;;;33.00;20.47;;;-0.50;99.90;;;;;;6176968;28;20054;-77
2023/02/11 01:01:30;;;;;;;32.90;20.40;;;-0.30;99.90;;;;;;6176021;28;20047;-77
2023/02/11 01:04:32;;;;;;;31.70;20.97;;;-0.30;99.90;;;;;;6175986;28;20054;-76
2023/02/11 01:07:33;;;;;;;39.40;22.57;;;-0.30;99.90;;;;;;6177115;28;20130;-77
2023/02/11 01:10:36;;;;;;;35.20;23.30;;;-0.30;99.90;;;;;;6178423;28;20057;-77
2023/02/11 01:13:38;;;;;;;36.00;22.30;;;-0.30;99.90;;;;;;6176381;28;20520;-76
2023/02/11 01:16:40;;;;;;;40.53;24.63;;;-0.20;99.90;;;;;;6176886;28;20046;-76
2023/02/11 01:19:42;;;;;;;39.03;23.23;;;-0.20;99.90;;;;;;6176895;28;20043;-76
2023/02/11 01:22:44;;;;;;;42.60;25.67;;;-0.20;99.90;;;;;;6175247;28;20596;-76
2023/02/11 01:25:47;;;;;;;39.17;22.90;;;0.00;99.90;;;;;;6176052;28;20066;-77
2023/02/11 01:28:48;;;;;;;40.50;24.70;;;0.20;99.90;;;;;;6177099;28;20047;-76
2023/02/11 01:31:51;;;;;;;36.83;23.23;;;0.40;99.90;;;;;;6176555;28;20057;-77
2023/02/11 01:34:53;;;;;;;36.97;21.87;;;0.50;99.90;;;;;;6176542;28;20047;-76
2023/02/11 01:37:54;;;;;;;32.67;20.23;;;0.60;99.90;;;;;;6176724;28;20463;-76
2023/02/11 01:41:01;;;;;;;40.47;25.57;;;0.70;99.90;;;;;;6176065;28;20436;-76
2023/02/11 01:44:24;;;;;;;34.83;21.70;;;0.70;99.90;;;;;;6174718;28;20050;-76
2023/02/11 01:47:27;;;;;;;42.27;24.77;;;0.80;99.90;;;;;;6175411;28;20512;-76
2023/02/11 01:50:29;;;;;;;34.40;23.20;;;1.00;99.90;;;;;;6176136;28;20058;-76
2023/02/11 02:00:19;;;;;;;34.35;22.50;;;1.20;99.90;;;;;;6175420;28;20489;-76
2023/02/11 02:03:23;;;;;;;34.53;20.43;;;1.30;99.90;;;;;;6175297;28;20082;-76
2023/02/11 02:06:33;;;;;;;35.25;18.75;;;1.30;99.90;;;;;;6175839;28;20058;-76
2023/02/11 02:09:40;;;;;;;31.70;18.55;;;1.30;99.90;;;;;;6174998;28;20523;-76
2023/02/11 02:12:43;;;;;;;32.37;19.67;;;1.30;99.90;;;;;;6175407;28;20497;-76
2023/02/11 02:15:50;;;;;;;29.48;19.13;;;1.30;99.90;;;;;;6173437;28;20061;-76
2023/02/11 02:19:04;;;;;;;29.10;21.33;;;1.30;99.90;;;;;;6175426;28;20046;-76
2023/02/11 02:22:40;;;;;;;34.00;22.05;;;1.30;99.90;;;;;;6175293;28;20561;-76
2023/02/11 02:26:13;;;;;;;30.00;20.05;;;1.30;99.90;;;;;;6174597;28;20505;-76
2023/02/11 02:29:49;;;;;;;38.73;19.30;;;1.20;99.90;;;;;;6174792;28;20050;-76
2023/02/11 02:33:00;;;;;;;32.37;18.97;;;1.10;99.90;;;;;;6174503;28;20070;-76
2023/02/11 02:36:09;;;;;;;35.70;22.03;;;1.10;99.90;;;;;;6174414;28;20519;-76
2023/02/11 02:39:17;;;;;;;31.80;21.50;;;1.10;99.90;;;;;;6174578;28;20137;-77
2023/02/11 02:42:20;;;;;;;33.10;23.52;;;1.10;99.90;;;;;;6174787;28;20050;-76
2023/02/11 02:45:22;;;;;;;37.67;23.95;;;1.00;99.90;;;;;;6173737;28;20350;-76
2023/02/11 02:48:30;;;;;;;34.58;25.65;;;1.10;99.90;;;;;;6155790;28;20054;-76
2023/02/11 02:51:50;;;;;;;37.00;22.57;;;1.00;99.90;;;;;;6149887;28;20664;-76
2023/02/11 02:55:12;;;;;;;37.27;22.97;;;0.90;99.90;;;;;;6149586;28;20048;-76
2023/02/11 02:58:48;;;;;;;36.33;23.50;;;0.90;99.90;;;;;;6150500;29;20175;-76
2023/02/11 03:01:57;;;;;;;33.97;20.53;;;0.90;99.90;;;;;;6149368;28;20047;-76
2023/02/11 03:05:08;;;;;;;32.07;22.50;;;0.80;99.90;;;;;;6149764;28;20058;-76
2023/02/11 03:08:16;;;;;;;36.70;21.23;;;0.70;99.90;;;;;;6149610;28;20110;-77
2023/02/11 03:11:20;;;;;;;38.50;23.83;;;0.70;99.90;;;;;;6149871;28;20062;-76
2023/02/11 03:14:25;;;;;;;38.93;20.33;;;0.70;99.90;;;;;;6172835;28;20126;-76
2023/02/11 03:17:28;;;;;;;34.33;21.97;;;0.60;99.90;;;;;;6173741;28;20054;-76
2023/02/11 03:20:36;;;;;;;39.20;21.77;;;0.60;99.90;;;;;;6173297;28;20050;-76
2023/02/11 03:23:41;;;;;;;29.42;19.33;;;0.60;99.90;;;;;;6173355;28;20464;-76
2023/02/11 03:26:48;;;;;;;33.47;20.30;;;0.60;99.90;;;;;;6174189;28;20050;-76
2023/02/11 03:29:55;;;;;;;27.87;19.73;;;0.70;99.90;;;;;;6173823;28;20074;-76
2023/02/11 03:33:01;;;;;;;33.58;20.05;;;0.70;99.90;;;;;;6173423;28;20409;-76
2023/02/11 03:36:07;;;;;;;34.37;21.00;;;0.70;99.90;;;;;;6173080;28;20058;-76
2023/02/11 03:39:11;;;;;;;33.47;19.30;;;0.70;99.90;;;;;;6173486;28;20409;-76
2023/02/11 03:42:14;;;;;;;39.57;21.93;;;0.80;99.90;;;;;;6173830;28;20058;-76
2023/02/11 03:45:20;;;;;;;29.47;19.90;;;0.80;99.90;;;;;;6172497;28;20066;-77
2023/02/11 03:48:25;;;;;;;34.10;19.23;;;0.90;99.90;;;;;;6173438;28;20050;-76
2023/02/11 03:51:30;;;;;;;30.53;19.00;;;0.90;99.90;;;;;;6173365;28;20089;-76
2023/02/11 03:54:33;;;;;;;27.27;19.17;;;0.90;99.90;;;;;;6173359;28;20055;-76
2023/02/11 03:57:34;;;;;;;28.92;19.77;;;0.90;99.90;;;;;;6172982;28;20042;-76
2023/02/11 04:00:39;;;;;;;31.60;19.67;;;0.90;99.90;;;;;;6172897;28;20058;-77
2023/02/11 04:03:41;;;;;;;29.30;18.00;;;0.90;99.90;;;;;;6172882;28;20046;-76
2023/02/11 04:06:44;;;;;;;30.03;18.93;;;0.90;99.90;;;;;;6173276;28;20062;-76
2023/02/11 04:09:46;;;;;;;29.27;20.00;;;0.90;99.90;;;;;;6173116;28;20065;-77
2023/02/11 04:12:48;;;;;;;31.77;19.30;;;1.00;99.90;;;;;;6172665;28;20552;-76
2023/02/11 04:15:49;;;;;;;23.90;17.60;;;1.00;99.90;;;;;;6172749;28;20535;-76
2023/02/11 04:18:51;;;;;;;25.97;17.57;;;1.10;99.90;;;;;;6173533;28;20059;-76
2023/02/11 04:21:54;;;;;;;32.37;19.60;;;1.10;99.90;;;;;;6174192;28;20058;-76
2023/02/11 04:24:56;;;;;;;29.37;18.37;;;1.10;99.90;;;;;;6175831;28;20058;-79
2023/02/11 04:27:58;;;;;;;28.93;19.67;;;1.10;99.90;;;;;;6176895;28;20054;-76
2023/02/11 04:30:59;;;;;;;25.73;17.97;;;1.20;99.90;;;;;;6172353;28;20412;-76
2023/02/11 04:34:01;;;;;;;28.10;18.42;;;1.20;99.90;;;;;;6172933;28;20062;-77
2023/02/11 04:37:04;;;;;;;22.40;15.23;;;1.20;99.90;;;;;;6172755;28;20062;-77
2023/02/11 04:40:07;;;;;;;25.77;17.07;;;1.30;99.90;;;;;;6172102;28;20053;-77
2023/02/11 04:43:09;;;;;;;28.42;18.80;;;1.30;99.90;;;;;;6172364;28;20050;-76
2023/02/11 04:46:10;;;;;;;39.43;19.53;;;1.30;99.90;;;;;;6169267;28;20517;-77
2023/02/11 04:49:13;;;;;;;35.77;25.30;;;1.30;99.90;;;;;;6172489;28;20055;-76
2023/02/11 04:52:16;;;;;;;37.47;26.80;;;1.30;99.90;;;;;;6172861;28;20051;-76
2023/02/11 04:55:18;;;;;;;31.70;22.93;;;1.30;99.90;;;;;;6172584;28;20055;-77
2023/02/11 04:58:20;;;;;;;35.70;22.53;;;1.30;99.90;;;;;;6174600;28;20063;-76
2023/02/11 05:01:22;;;;;;;33.60;20.93;;;1.30;99.90;;;;;;6176476;28;20743;-77
2023/02/11 05:04:24;;;;;;;35.20;25.30;;;1.30;99.90;;;;;;6176091;28;20050;-76
2023/02/11 05:07:27;;;;;;;35.13;21.38;;;1.30;99.90;;;;;;6176838;28;20054;-76
2023/02/11 05:10:29;;;;;;;23.63;16.50;;;1.30;99.90;;;;;;6176488;28;20046;-77
2023/02/11 05:13:31;;;;;;;37.47;23.15;;;1.30;99.90;;;;;;6176349;28;20058;-76
2023/02/11 05:16:34;;;;;;;27.83;18.13;;;1.20;99.90;;;;;;6175866;28;20050;-76
2023/02/11 05:19:35;;;;;;;35.80;25.60;;;1.20;99.90;;;;;;6175967;28;20047;-76
2023/02/11 05:22:38;;;;;;;45.47;27.50;;;1.20;99.90;;;;;;6178820;28;20246;-76
2023/02/11 05:25:40;;;;;;;27.47;20.00;;;1.20;99.90;;;;;;6175802;28;20053;-76
2023/02/11 05:28:42;;;;;;;51.40;34.83;;;1.20;99.90;;;;;;6176194;28;20050;-76
2023/02/11 05:31:44;;;;;;;33.47;22.05;;;1.20;99.90;;;;;;6175764;28;20468;-76
2023/02/11 05:34:46;;;;;;;35.30;21.33;;;1.20;99.90;;;;;;6175655;28;20572;-77
2023/02/11 05:37:49;;;;;;;30.33;18.43;;;1.20;99.90;;;;;;6179333;28;20051;-76
2023/02/11 05:40:50;;;;;;;49.73;39.40;;;1.30;99.90;;;;;;6182038;28;20042;-76
2023/02/11 05:43:52;;;;;;;35.25;24.15;;;1.30;99.90;;;;;;6175829;28;20058;-77
2023/02/11 05:46:54;;;;;;;202.32;130.65;;;1.40;99.90;;;;;;6176015;28;20054;-76
2023/02/11 05:49:55;;;;;;;47.65;37.60;;;1.40;99.90;;;;;;6175847;28;20047;-76
2023/02/11 05:52:58;;;;;;;30.42;24.30;;;1.40;99.90;;;;;;6175277;28;20062;-76
2023/02/11 05:56:00;;;;;;;28.50;19.20;;;1.40;99.90;;;;;;6175250;28;20054;-76
2023/02/11 05:59:02;;;;;;;29.75;19.10;;;1.40;99.90;;;;;;6174814;28;20049;-76
2023/02/11 06:02:03;;;;;;;35.75;19.45;;;1.40;99.90;;;;;;6175990;28;20060;-76
2023/02/11 06:05:06;;;;;;;32.25;20.35;;;1.30;99.90;;;;;;6174804;28;20042;-76
2023/02/11 06:08:09;;;;;;;30.27;20.63;;;1.30;99.90;;;;;;6175237;28;20042;-76
2023/02/11 06:11:10;;;;;;;37.83;25.38;;;1.20;99.90;;;;;;6175439;28;20046;-77
2023/02/11 06:14:13;;;;;;;119.97;54.77;;;1.20;99.90;;;;;;6176002;28;20058;-77
2023/02/11 06:17:14;;;;;;;120.03;53.47;;;1.10;99.90;;;;;;6175034;28;20074;-77
2023/02/11 06:20:16;;;;;;;275.45;107.38;;;1.10;99.90;;;;;;6175302;28;20046;-77
2023/02/11 06:23:20;;;;;;;184.20;74.60;;;1.00;99.90;;;;;;6174882;28;20047;-78
2023/02/11 06:26:23;;;;;;;393.43;152.67;;;0.90;99.90;;;;;;6174776;28;20051;-77
2023/02/11 06:29:24;;;;;;;76.03;57.43;;;0.90;99.90;;;;;;6174757;28;20070;-78
2023/02/11 06:32:27;;;;;;;42.97;29.40;;;0.80;99.90;;;;;;6174290;28;20054;-77
2023/02/11 06:35:29;;;;;;;42.03;27.43;;;0.80;99.90;;;;;;6174211;28;20058;-77
2023/02/11 06:38:32;;;;;;;42.83;27.33;;;0.70;99.90;;;;;;6175062;28;20054;-77
2023/02/11 06:41:34;;;;;;;40.57;26.33;;;0.70;99.90;;;;;;6169355;28;20043;-78
2023/02/11 06:44:36;;;;;;;37.57;24.30;;;0.70;99.90;;;;;;6150081;28;20047;-77
2023/02/11 06:47:37;;;;;;;44.40;26.03;;;0.70;99.90;;;;;;6150529;28;20051;-77
2023/02/11 06:50:39;;;;;;;42.30;26.83;;;0.70;99.90;;;;;;6150330;29;20051;-77
2023/02/11 06:53:44;;;;;;;44.77;27.13;;;0.70;99.90;;;;;;6149954;28;20047;-77
2023/02/11 06:56:46;;;;;;;48.10;26.33;;;0.70;99.90;;;;;;6149704;28;20533;-77
2023/02/11 06:59:48;;;;;;;47.13;28.77;;;0.70;99.90;;;;;;6149545;28;20047;-77
2023/02/11 07:02:49;;;;;;;46.77;32.73;;;0.80;99.90;;;;;;6149899;28;20058;-77
2023/02/11 07:05:51;;;;;;;44.50;28.90;;;0.80;99.90;;;;;;6149882;29;20497;-78
2023/02/11 07:08:55;;;;;;;44.53;28.90;;;0.90;99.90;;;;;;6149827;28;20054;-77
2023/02/11 07:11:57;;;;;;;41.83;30.67;;;0.90;99.90;;;;;;6149863;28;20047;-78
2023/02/11 07:14:58;;;;;;;50.88;32.70;;;1.00;99.90;;;;;;6149663;28;20058;-78
2023/02/11 07:18:00;;;;;;;46.67;30.20;;;1.10;99.90;;;;;;6149819;29;20534;-77
2023/02/11 07:21:04;;;;;;;44.33;29.27;;;1.10;99.90;;;;;;6166774;28;20058;-78
2023/02/11 07:24:08;;;;;;;49.13;31.20;;;1.20;99.90;;;;;;6174414;28;20476;-78
2023/02/11 07:27:10;;;;;;;51.20;29.97;;;1.20;99.90;;;;;;6174562;28;20055;-78
2023/02/11 07:30:13;;;;;;;47.57;32.90;;;1.30;99.90;;;;;;6174124;28;20046;-79
2023/02/11 07:33:15;;;;;;;47.60;31.30;;;1.40;99.90;;;;;;6173696;28;20050;-78
2023/02/11 07:36:17;;;;;;;50.42;31.92;;;1.40;99.90;;;;;;6173200;28;20051;-79
2023/02/11 07:39:21;;;;;;;53.92;30.90;;;1.50;99.90;;;;;;6173170;28;20043;-78
2023/02/11 07:42:24;;;;;;;53.15;34.65;;;1.60;99.90;;;;;;6173604;28;20197;-79
2023/02/11 07:45:25;;;;;;;51.20;33.30;;;1.70;99.90;;;;;;6173016;28;20046;-79
2023/02/11 07:48:27;;;;;;;46.38;30.27;;;1.70;99.90;;;;;;6172946;28;20050;-78
2023/02/11 07:51:31;;;;;;;48.03;29.75;;;1.70;99.90;;;;;;6173518;28;20057;-78
2023/02/11 07:54:34;;;;;;;39.97;30.38;;;1.80;99.90;;;;;;6173766;28;20063;-78
2023/02/11 07:57:35;;;;;;;42.47;27.70;;;1.80;99.90;;;;;;6173188;28;20051;-78
2023/02/11 08:00:37;;;;;;;41.25;30.02;;;1.90;99.90;;;;;;6173252;28;20043;-78
2023/02/11 08:03:40;;;;;;;49.08;31.38;;;1.90;99.90;;;;;;6173127;28;20062;-78
2023/02/11 08:06:43;;;;;;;47.50;30.10;;;1.90;99.90;;;;;;6173184;28;20421;-77
2023/02/11 08:09:46;;;;;;;43.03;28.58;;;2.00;99.90;;;;;;6173071;28;20051;-79
2023/02/11 08:12:48;;;;;;;43.55;27.40;;;2.10;99.90;;;;;;6173456;28;20046;-78
2023/02/11 08:15:50;;;;;;;55.75;30.05;;;2.10;99.90;;;;;;6173950;28;20054;-79
2023/02/11 08:18:53;;;;;;;45.13;30.02;;;2.20;99.90;;;;;;6173020;28;20051;-79
2023/02/11 08:21:55;;;;;;;42.60;26.73;;;2.10;99.90;;;;;;6173093;28;20047;-79
2023/02/11 08:24:58;;;;;;;46.30;27.80;;;2.20;99.90;;;;;;6173086;28;20050;-78
2023/02/11 08:28:00;;;;;;;43.22;28.77;;;2.30;99.90;;;;;;6172440;28;20436;-78
2023/02/11 08:31:06;;;;;;;43.20;29.15;;;2.30;99.90;;;;;;6173174;28;20503;-78
2023/02/11 08:34:08;;;;;;;45.88;31.35;;;2.30;99.90;;;;;;6177683;28;20113;-78
2023/02/11 08:37:12;;;;;;;43.30;27.33;;;2.30;99.90;;;;;;6177121;28;20065;-78
2023/02/11 08:40:15;;;;;;;48.33;29.63;;;2.30;99.90;;;;;;6162218;28;20050;-78
2023/02/11 08:43:23;;;;;;;41.00;28.70;;;2.30;99.90;;;;;;6182851;28;20135;-77
2023/02/11 08:46:25;;;;;;;49.03;30.77;;;2.30;99.90;;;;;;6191184;28;20055;-77
2023/02/11 08:49:31;;;;;;;40.90;26.95;;;2.30;99.90;;;;;;6178112;28;20413;-78
2023/02/11 08:52:33;;;;;;;48.88;29.98;;;2.40;99.90;;;;;;6174048;28;20046;-78
2023/02/11 08:55:36;;;;;;;56.20;30.42;;;2.50;99.90;;;;;;6194497;28;20060;-78
2023/02/11 08:58:38;;;;;;;48.58;32.72;;;2.50;99.90;;;;;;6201128;28;20057;-77
2023/02/11 09:01:40;;;;;;;42.47;28.90;;;2.70;99.90;;;;;;6200017;28;20181;-77
2023/02/11 09:04:41;;;;;;;46.55;28.40;;;2.80;99.90;;;;;;6200919;28;20416;-78
2023/02/11 09:07:43;;;;;;;40.42;29.75;;;3.00;99.90;;;;;;6206653;28;20046;-78
2023/02/11 09:10:46;;;;;;;53.72;28.02;;;3.20;99.90;;;;;;6205227;28;20085;-79
2023/02/11 09:13:48;;;;;;;44.13;30.10;;;3.50;99.90;;;;;;6195460;28;20055;-78
2023/02/11 09:16:51;;;;;;;36.08;21.10;;;3.70;99.90;;;;;;6197421;28;20508;-78
2023/02/11 09:19:53;;;;;;;42.97;26.15;;;3.90;99.90;;;;;;6201607;28;20053;-80
2023/02/11 09:22:59;;;;;;;40.05;25.80;;;4.20;99.90;;;;;;6201089;28;20058;-79
2023/02/11 09:26:05;;;;;;;42.42;26.08;;;4.50;99.90;;;;;;6201966;28;20564;-78
2023/02/11 09:29:08;;;;;;;40.95;26.08;;;4.80;99.90;;;;;;6199238;28;20061;-77
2023/02/11 09:32:10;;;;;;;41.85;28.02;;;5.10;99.90;;;;;;6201281;28;20520;-78
2023/02/11 09:35:11;;;;;;;39.05;25.35;;;5.30;99.90;;;;;;6199178;28;20520;-77
2023/02/11 09:38:23;;;;;;;53.38;37.13;;;5.60;99.90;;;;;;6199902;28;20637;-77
2023/02/11 09:41:39;;;;;;;39.50;25.48;;;5.90;99.90;;;;;;6198918;28;20204;-78
2023/02/11 09:44:44;;;;;;;38.50;25.42;;;6.10;99.90;;;;;;6188908;28;20069;-77
2023/02/11 09:47:54;;;;;;;35.22;24.05;;;6.40;99.90;;;;;;6198874;28;20042;-77
2023/02/11 09:51:00;;;;;;;33.35;22.52;;;6.70;99.90;;;;;;6199064;28;20057;-78
2023/02/11 09:54:07;;;;;;;31.77;24.10;;;7.10;99.90;;;;;;6198556;28;20057;-77
2023/02/11 09:57:10;;;;;;;35.67;23.75;;;7.50;99.90;;;;;;6191743;28;20116;-77
2023/02/11 10:00:20;;;;;;;36.70;24.98;;;7.90;99.90;;;;;;6198705;28;20046;-78
2023/02/11 10:03:49;;;;;;;40.03;26.10;;;8.30;99.90;;;;;;6202059;28;20575;-79
2023/02/11 10:06:54;;;;;;;37.97;25.23;;;8.40;99.90;;;;;;6198564;28;20065;-77
2023/02/11 10:10:07;;;;;;;39.70;25.95;;;8.10;99.90;;;;;;6199496;28;20351;-77
2023/02/11 10:13:47;;;;;;;40.60;25.40;;;8.10;99.90;;;;;;6197696;28;20046;-78
2023/02/11 10:16:58;;;;;;;37.42;24.02;;;7.80;99.90;;;;;;6121553;28;20141;-77
2023/02/11 10:20:15;;;;;;;37.13;24.38;;;7.70;99.90;;;;;;6151058;28;20625;-78
2023/02/11 10:23:23;;;;;;;37.53;24.42;;;7.70;99.90;;;;;;6188832;28;20053;-77
2023/02/11 10:26:29;;;;;;;35.60;24.45;;;7.60;99.90;;;;;;6199106;28;20050;-77
2023/02/11 10:29:40;;;;;;;40.10;24.45;;;7.70;99.70;;;;;;6196820;28;20050;-79
2023/02/11 10:32:48;;;;;;;37.97;24.27;;;7.70;99.40;;;;;;6198735;28;20144;-77
2023/02/11 10:35:49;;;;;;;35.97;23.90;;;7.80;99.40;;;;;;6198180;28;20057;-77
2023/02/11 10:38:52;;;;;;;33.17;22.73;;;7.80;98.60;;;;;;6199378;28;20050;-77
2023/02/11 10:41:57;;;;;;;33.15;21.95;;;7.60;98.80;;;;;;6199340;28;20046;-78
2023/02/11 10:45:05;;;;;;;29.55;21.60;;;7.80;98.80;;;;;;6184216;28;20046;-78
2023/02/11 10:48:38;;;;;;;33.88;21.45;;;8.00;98.60;;;;;;6174019;28;20043;-78
2023/02/11 10:51:39;;;;;;;33.55;23.48;;;8.20;97.90;;;;;;6169456;28;20042;-77
2023/02/11 10:54:41;;;;;;;48.08;34.65;;;8.10;97.70;;;;;;6171204;28;20050;-77
2023/02/11 10:57:51;;;;;;;83.93;56.03;;;8.10;98.00;;;;;;6190355;28;20070;-79
2023/02/11 11:00:55;;;;;;;47.80;37.78;;;8.30;97.90;;;;;;6199154;28;20057;-78
2023/02/11 11:03:58;;;;;;;40.75;26.13;;;8.40;97.30;;;;;;6200285;28;20132;-78
2023/02/11 11:07:13;;;;;;;33.83;26.10;;;8.40;97.20;;;;;;6197498;28;20054;-76
2023/02/11 11:10:36;;;;;;;37.95;22.98;;;8.80;97.50;;;;;;6182542;28;20035;-78
2023/02/11 11:13:39;;;;;;;74.82;49.83;;;9.40;97.10;;;;;;6181291;28;20050;-78
2023/02/11 11:16:52;;;;;;;50.50;33.20;;;9.90;96.20;;;;;;6172807;28;20073;-77
2023/02/11 11:20:11;;;;;;;29.52;20.85;;;10.40;95.40;;;;;;6173001;28;20050;-77
2023/02/11 11:23:18;;;;;;;40.85;29.00;;;10.60;95.10;;;;;;6173467;28;20054;-77
2023/02/11 11:26:20;;;;;;;51.75;34.58;;;11.20;94.70;;;;;;6172627;28;20082;-77
2023/02/11 11:29:29;;;;;;;26.80;18.65;;;11.50;93.10;;;;;;6174183;28;20054;-78
2023/02/11 11:32:32;;;;;;;28.65;17.77;;;11.70;92.10;;;;;;6174276;28;20054;-78
2023/02/11 11:35:35;;;;;;;23.30;16.85;;;11.70;92.70;;;;;;6173925;28;20066;-77
2023/02/11 11:38:44;;;;;;;25.10;18.52;;;11.80;91.60;;;;;;6173091;28;20050;-78
2023/02/11 11:41:51;;;;;;;25.42;17.73;;;11.80;90.90;;;;;;6173945;28;20047;-78
2023/02/11 11:44:58;;;;;;;23.30;14.32;;;12.00;91.40;;;;;;6184297;28;20174;-77
2023/02/11 11:48:04;;;;;;;20.85;16.00;;;12.20;90.40;;;;;;6196654;28;20412;-78
2023/02/11 11:51:11;;;;;;;24.40;17.85;;;12.00;90.10;;;;;;6196459;28;20054;-79
2023/02/11 11:54:16;;;;;;;24.77;16.17;;;12.10;90.10;;;;;;6196702;28;20049;-78
2023/02/11 11:57:21;;;;;;;21.73;16.85;;;12.20;89.30;;;;;;6189992;28;20344;-78
2023/02/11 12:00:32;;;;;;;26.73;16.63;;;12.70;89.10;;;;;;6194590;28;20527;-77
2023/02/11 12:03:58;;;;;;;23.30;16.05;;;12.60;87.40;;;;;;6196164;28;20419;-78
2023/02/11 12:07:16;;;;;;;21.95;13.27;;;12.80;87.90;;;;;;6198013;28;20058;-77
2023/02/11 12:10:31;;;;;;;18.63;14.23;;;13.00;85.60;;;;;;6201696;28;20046;-77
2023/02/11 12:13:44;;;;;;;20.58;14.85;;;13.10;86.40;;;;;;6199965;28;20057;-78
2023/02/11 12:16:57;;;;;;;18.58;14.32;;;13.10;85.00;;;;;;6180264;28;20097;-78
2023/02/11 12:20:19;;;;;;;19.42;14.75;;;13.60;84.80;;;;;;6180191;28;20073;-79
2023/02/11 12:23:41;;;;;;;19.67;14.70;;;13.80;83.60;;;;;;6180493;28;20552;-77
2023/02/11 12:26:49;;;;;;;25.75;15.25;;;14.20;83.20;;;;;;6181095;28;20043;-78
2023/02/11 12:30:00;;;;;;;19.27;15.20;;;14.50;81.90;;;;;;6178350;28;20238;-77
2023/02/11 12:33:11;;;;;;;18.90;14.68;;;14.20;81.00;;;;;;6177206;28;20043;-77
2023/02/11 12:36:22;;;;;;;21.23;16.10;;;14.40;81.40;;;;;;6176877;28;20057;-77
2023/02/11 12:39:34;;;;;;;18.05;13.68;;;14.50;80.40;;;;;;6176860;28;20054;-77
2023/02/11 12:43:16;;;;;;;21.48;13.93;;;14.60;79.60;;;;;;6177299;28;20046;-77
2023/02/11 12:46:38;;;;;;;21.63;15.27;;;14.70;78.90;;;;;;6188569;28;20046;-79
2023/02/11 12:50:01;;;;;;;26.42;15.98;;;14.50;78.30;;;;;;6177154;28;20074;-78
2023/02/11 12:53:25;;;;;;;20.65;16.25;;;14.50;77.90;;;;;;6171998;28;20054;-78
2023/02/11 12:56:32;;;;;;;20.25;15.25;;;14.60;78.30;;;;;;6176334;28;20051;-77
2023/02/11 12:59:43;;;;;;;25.30;16.02;;;14.90;77.60;;;;;;6184016;28;20055;-78
2023/02/11 13:02:53;;;;;;;19.15;15.80;;;15.10;76.90;;;;;;6199698;28;20055;-78
2023/02/11 13:05:58;;;;;;;23.65;16.25;;;15.40;76.40;;;;;;6199482;28;20070;-77
2023/02/11 13:09:02;;;;;;;25.60;16.33;;;15.70;75.50;;;;;;6200756;28;20054;-77
2023/02/11 13:15:24;;;;;;;21.67;16.00;;;15.90;74.80;;;;;;6195094;28;20640;-77
2023/02/11 13:18:48;;;;;;;21.83;15.70;;;16.00;74.60;;;;;;6198364;28;20060;-77
2023/02/11 13:22:13;;;;;;;20.25;15.77;;;16.20;73.00;;;;;;6199720;28;20050;-77
2023/02/11 13:25:23;;;;;;;18.10;15.57;;;16.30;72.80;;;;;;6196630;28;20042;-77
2023/02/11 13:28:38;;;;;;;19.02;15.23;;;16.50;73.00;;;;;;6200600;28;20050;-79
2023/02/11 13:31:40;;;;;;;20.85;17.05;;;16.60;72.30;;;;;;6199980;28;20456;-77
2023/02/11 13:35:02;;;;;;;20.77;15.35;;;16.80;72.20;;;;;;6202101;28;20053;-79
2023/02/11 13:38:13;;;;;;;15.93;14.10;;;16.60;70.80;;;;;;6198428;28;20424;-80
2023/02/11 13:41:18;;;;;;;20.02;16.13;;;16.70;70.70;;;;;;6206548;28;20042;-80
2023/02/11 13:44:27;;;;;;;22.05;16.70;;;16.70;70.20;;;;;;6184883;28;20062;-80
2023/02/11 13:47:33;;;;;;;24.13;18.20;;;16.70;70.90;;;;;;6210371;28;20060;-79
2023/02/11 13:50:39;;;;;;;21.05;17.58;;;16.70;70.60;;;;;;6199959;28;20181;-79
2023/02/11 13:53:48;;;;;;;21.98;17.95;;;16.60;70.40;;;;;;6200714;28;20050;-79
2023/02/11 13:57:26;;;;;;;23.30;17.52;;;16.40;70.40;;;;;;6199976;28;20054;-80
2023/02/11 14:00:52;;;;;;;24.77;17.93;;;16.30;70.00;;;;;;6183706;28;20131;-79
2023/02/11 14:10:59;;;;;;;23.13;19.15;;;16.70;70.40;;;;;;6175354;28;20047;-79
2023/02/11 14:14:13;;;;;;;21.80;17.98;;;16.90;70.00;;;;;;6183966;28;20567;-80
2023/02/11 14:17:30;;;;;;;24.13;18.13;;;17.00;69.60;;;;;;6200870;28;20046;-80
2023/02/11 14:20:43;;;;;;;23.52;19.00;;;16.70;68.80;;;;;;6200368;28;20054;-81
2023/02/11 14:23:45;;;;;;;24.20;19.27;;;16.70;69.00;;;;;;6200908;28;20416;-79
2023/02/11 14:26:51;;;;;;;25.15;18.55;;;16.50;69.20;;;;;;6200468;28;20077;-81
2023/02/11 14:30:17;;;;;;;22.02;18.75;;;16.20;69.70;;;;;;6199787;28;20057;-81
2023/02/11 14:34:04;;;;;;;27.95;19.50;;;16.10;69.70;;;;;;6197473;28;20424;-79
2023/02/11 14:37:17;;;;;;;36.47;32.78;;;15.60;70.30;;;;;;6198631;28;20070;-79
2023/02/11 14:40:27;;;;;;;24.98;18.70;;;15.10;71.00;;;;;;6199452;28;20163;-80
2023/02/11 14:43:34;;;;;;;25.88;18.92;;;14.60;71.60;;;;;;6198346;28;20058;-80
2023/02/11 14:46:36;;;;;;;22.90;19.92;;;14.10;72.50;;;;;;6184389;28;20054;-79
2023/02/11 14:49:40;;;;;;;29.98;21.98;;;13.70;73.00;;;;;;6198993;28;20055;-79
2023/02/11 14:52:44;;;;;;;24.83;18.02;;;13.30;73.60;;;;;;6198023;28;20416;-79
2023/02/11 14:55:47;;;;;;;28.67;19.92;;;13.00;74.10;;;;;;6180884;28;20062;-80
2023/02/11 14:58:51;;;;;;;103.53;67.18;;;12.60;74.80;;;;;;6174660;28;20047;-79
2023/02/11 15:01:54;;;;;;;45.55;32.05;;;12.40;75.80;;;;;;6185683;28;20078;-78
2023/02/11 15:05:14;;;;;;;41.92;35.30;;;12.30;76.30;;;;;;6171137;28;20058;-79
2023/02/11 15:08:16;;;;;;;29.20;20.85;;;12.20;76.80;;;;;;6174493;28;20046;-79
2023/02/11 15:11:22;;;;;;;25.50;18.90;;;12.10;77.20;;;;;;6174182;28;20050;-79
2023/02/11 15:14:25;;;;;;;25.77;19.27;;;12.00;77.50;;;;;;6181650;28;20081;-79
2023/02/11 15:17:31;;;;;;;26.02;18.60;;;11.90;77.80;;;;;;6197274;28;20053;-79
2023/02/11 15:20:35;;;;;;;40.90;32.58;;;11.60;78.10;;;;;;6197204;28;20135;-79
2023/02/11 15:23:41;;;;;;;33.58;23.52;;;11.60;78.60;;;;;;6198514;28;20069;-82
2023/02/11 15:26:43;;;;;;;36.95;25.27;;;11.50;79.00;;;;;;6197420;28;20046;-80
2023/02/11 15:29:48;;;;;;;67.20;54.70;;;11.50;79.40;;;;;;6197742;28;20058;-80
2023/02/11 15:32:50;;;;;;;37.35;28.42;;;11.50;79.70;;;;;;6197737;28;20411;-79
2023/02/11 15:36:02;;;;;;;31.50;22.85;;;11.40;79.90;;;;;;6202135;28;20061;-82
2023/02/11 15:39:19;;;;;;;28.15;19.30;;;11.40;80.30;;;;;;6201296;28;20046;-79
2023/02/11 15:42:25;;;;;;;27.00;21.77;;;11.20;80.90;;;;;;6200871;28;20511;-79
2023/02/11 15:45:31;;;;;;;24.15;19.25;;;11.10;81.10;;;;;;6200774;28;20058;-83
2023/02/11 15:48:37;;;;;;;25.48;18.50;;;11.00;81.60;;;;;;6199144;28;20488;-80
2023/02/11 15:51:46;;;;;;;24.50;19.30;;;11.00;82.30;;;;;;6199707;28;20109;-81
2023/02/11 15:54:50;;;;;;;23.42;19.15;;;10.80;82.70;;;;;;6197443;28;20054;-80
2023/02/11 15:57:56;;;;;;;26.98;19.13;;;10.70;83.10;;;;;;6195338;28;20147;-79
2023/02/11 16:00:59;;;;;;;28.40;20.50;;;10.70;83.50;;;;;;6178404;28;20135;-79
2023/02/11 16:04:02;;;;;;;26.58;19.77;;;10.60;83.80;;;;;;6179486;28;20049;-80
2023/02/11 16:07:05;;;;;;;24.42;18.83;;;10.50;84.40;;;;;;6174566;28;20567;-79
2023/02/11 16:10:21;;;;;;;30.80;20.60;;;10.40;84.60;;;;;;6187587;23;20046;-79